sensor_id;sensor_type;location;lat;lon;timestamp;P1;durP1;ratioP1;P2;durP2;ratioP2
17228;SDS011;8731;50.364;8.958;2023-02-15T08:27:24;43.00;;;20.77;;
17228;SDS011;8731;50.364;8.958;2023-02-15T08:31:48;47.40;;;23.93;;
17228;SDS011;8731;50.364;8.958;2023-02-15T08:36:11;46.47;;;23.83;;
17228;SDS011;8731;50.364;8.958;2023-02-15T08:40:38;39.77;;;21.07;;
17228;SDS011;8731;50.364;8.958;2023-02-15T08:45:01;51.80;;;24.90;;
17228;SDS011;8731;50.364;8.958;2023-02-15T08:49:23;47.47;;;23.47;;
17228;SDS011;8731;50.364;8.958;2023-02-15T08:53:46;48.43;;;22.13;;
17228;SDS011;8731;50.364;8.958;2023-02-15T08:58:12;54.60;;;23.57;;
17228;SDS011;8731;50.364;8.958;2023-02-15T09:02:34;46.67;;;21.87;;
17228;SDS011;8731;50.364;8.958;2023-02-15T09:06:57;55.23;;;24.47;;
17228;SDS011;8731;50.364;8.958;2023-02-15T09:11:20;48.23;;;22.50;;
17228;SDS011;8731;50.364;8.958;2023-02-15T09:15:46;48.93;;;22.97;;
17228;SDS011;8731;50.364;8.958;2023-02-15T09:20:09;28.77;;;11.97;;
17228;SDS011;8731;50.364;8.958;2023-02-15T09:24:32;50.17;;;25.63;;
17228;SDS011;8731;50.364;8.958;2023-02-15T09:28:55;44.90;;;22.43;;
17228;SDS011;8731;50.364;8.958;2023-02-15T09:33:21;48.93;;;23.53;;
17228;SDS011;8731;50.364;8.958;2023-02-15T09:37:45;49.57;;;24.47;;
17228;SDS011;8731;50.364;8.958;2023-02-15T09:42:11;41.43;;;20.57;;
17228;SDS011;8731;50.364;8.958;2023-02-15T09:52:31;39.53;;;19.20;;
17228;SDS011;8731;50.364;8.958;2023-02-15T09:57:09;48.73;;;24.50;;
17228;SDS011;8731;50.364;8.958;2023-02-15T10:01:41;44.77;;;22.90;;
17228;SDS011;8731;50.364;8.958;2023-02-15T10:06:26;43.83;;;22.00;;
17228;SDS011;8731;50.364;8.958;2023-02-15T10:11:02;46.40;;;21.90;;
17228;SDS011;8731;50.364;8.958;2023-02-15T10:15:52;45.90;;;22.77;;
17228;SDS011;8731;50.364;8.958;2023-02-15T10:20:31;42.57;;;21.23;;
17228;SDS011;8731;50.364;8.958;2023-02-15T10:25:07;47.73;;;23.87;;
17228;SDS011;8731;50.364;8.958;2023-02-15T10:29:48;38.93;;;21.63;;
17228;SDS011;8731;50.364;8.958;2023-02-15T10:34:23;38.30;;;21.03;;
17228;SDS011;8731;50.364;8.958;2023-02-15T10:39:00;43.53;;;24.17;;
17228;SDS011;8731;50.364;8.958;2023-02-15T10:43:37;39.47;;;22.57;;
17228;SDS011;8731;50.364;8.958;2023-02-15T10:53:26;37.23;;;19.27;;
17228;SDS011;8731;50.364;8.958;2023-02-15T10:58:05;40.93;;;23.47;;
17228;SDS011;8731;50.364;8.958;2023-02-15T11:02:45;42.40;;;23.50;;
17228;SDS011;8731;50.364;8.958;2023-02-15T11:07:33;39.43;;;19.87;;
17228;SDS011;8731;50.364;8.958;2023-02-15T11:12:01;46.53;;;24.50;;
17228;SDS011;8731;50.364;8.958;2023-02-15T11:16:29;45.53;;;22.50;;
17228;SDS011;8731;50.364;8.958;2023-02-15T11:20:59;50.23;;;27.07;;
17228;SDS011;8731;50.364;8.958;2023-02-15T11:25:29;45.07;;;24.97;;
17228;SDS011;8731;50.364;8.958;2023-02-15T11:29:57;51.57;;;28.93;;
17228;SDS011;8731;50.364;8.958;2023-02-15T11:34:31;48.07;;;27.23;;
17228;SDS011;8731;50.364;8.958;2023-02-15T11:38:59;52.30;;;27.10;;
17228;SDS011;8731;50.364;8.958;2023-02-15T11:43:32;48.90;;;27.27;;
17228;SDS011;8731;50.364;8.958;2023-02-15T14:05:49;30.10;;;20.87;;
17228;SDS011;8731;50.364;8.958;2023-02-15T14:10:44;30.83;;;21.63;;
17228;SDS011;8731;50.364;8.958;2023-02-15T14:15:32;34.63;;;24.03;;
17228;SDS011;8731;50.364;8.958;2023-02-15T14:20:07;33.30;;;23.27;;
17228;SDS011;8731;50.364;8.958;2023-02-15T14:24:41;34.30;;;24.07;;
17228;SDS011;8731;50.364;8.958;2023-02-15T14:29:13;32.97;;;22.70;;
17228;SDS011;8731;50.364;8.958;2023-02-15T14:33:50;31.30;;;21.77;;
17228;SDS011;8731;50.364;8.958;2023-02-15T14:38:20;32.80;;;22.20;;
17228;SDS011;8731;50.364;8.958;2023-02-15T14:42:56;31.17;;;22.50;;
17228;SDS011;8731;50.364;8.958;2023-02-15T14:47:26;33.93;;;23.10;;
17228;SDS011;8731;50.364;8.958;2023-02-15T14:51:56;28.87;;;21.50;;
17228;SDS011;8731;50.364;8.958;2023-02-15T14:56:24;31.80;;;21.10;;
17228;SDS011;8731;50.364;8.958;2023-02-15T15:00:48;29.10;;;21.80;;
17228;SDS011;8731;50.364;8.958;2023-02-15T15:05:11;33.73;;;21.63;;
17228;SDS011;8731;50.364;8.958;2023-02-15T15:09:41;30.30;;;21.13;;
17228;SDS011;8731;50.364;8.958;2023-02-15T15:14:09;31.50;;;21.50;;
17228;SDS011;8731;50.364;8.958;2023-02-15T15:24:47;30.03;;;21.40;;
17228;SDS011;8731;50.364;8.958;2023-02-15T15:29:14;28.50;;;20.70;;
17228;SDS011;8731;50.364;8.958;2023-02-15T15:39:15;36.67;;;24.40;;
17228;SDS011;8731;50.364;8.958;2023-02-15T15:49:23;31.10;;;21.60;;
17228;SDS011;8731;50.364;8.958;2023-02-15T15:53:50;27.60;;;20.67;;
17228;SDS011;8731;50.364;8.958;2023-02-15T15:58:16;36.73;;;23.40;;
17228;SDS011;8731;50.364;8.958;2023-02-15T16:02:50;37.00;;;25.10;;
17228;SDS011;8731;50.364;8.958;2023-02-15T16:07:14;34.73;;;25.17;;
17228;SDS011;8731;50.364;8.958;2023-02-15T16:11:46;35.50;;;25.97;;
17228;SDS011;8731;50.364;8.958;2023-02-15T16:16:12;38.27;;;26.33;;
17228;SDS011;8731;50.364;8.958;2023-02-15T16:20:42;45.83;;;28.57;;
17228;SDS011;8731;50.364;8.958;2023-02-15T16:25:20;40.50;;;27.80;;
17228;SDS011;8731;50.364;8.958;2023-02-15T16:29:55;44.17;;;27.80;;
17228;SDS011;8731;50.364;8.958;2023-02-15T16:34:17;49.83;;;31.33;;
17228;SDS011;8731;50.364;8.958;2023-02-15T16:39:07;50.30;;;30.07;;
17228;SDS011;8731;50.364;8.958;2023-02-15T16:43:38;46.90;;;29.60;;
17228;SDS011;8731;50.364;8.958;2023-02-15T16:48:05;47.17;;;28.50;;
17228;SDS011;8731;50.364;8.958;2023-02-15T16:52:36;53.53;;;32.63;;
17228;SDS011;8731;50.364;8.958;2023-02-15T16:57:00;56.17;;;34.77;;
17228;SDS011;8731;50.364;8.958;2023-02-15T17:01:24;46.30;;;29.83;;
17228;SDS011;8731;50.364;8.958;2023-02-15T17:05:52;51.60;;;32.03;;
17228;SDS011;8731;50.364;8.958;2023-02-15T17:10:25;47.67;;;28.73;;
17228;SDS011;8731;50.364;8.958;2023-02-15T17:14:52;54.43;;;33.30;;
17228;SDS011;8731;50.364;8.958;2023-02-15T17:19:17;47.47;;;30.93;;
17228;SDS011;8731;50.364;8.958;2023-02-15T17:23:47;46.90;;;31.40;;
17228;SDS011;8731;50.364;8.958;2023-02-15T17:28:15;49.73;;;31.93;;
17228;SDS011;8731;50.364;8.958;2023-02-15T17:32:51;51.43;;;32.40;;
17228;SDS011;8731;50.364;8.958;2023-02-15T17:37:26;54.13;;;32.37;;
17228;SDS011;8731;50.364;8.958;2023-02-15T17:41:51;52.37;;;32.70;;
17228;SDS011;8731;50.364;8.958;2023-02-15T17:46:14;53.43;;;33.30;;
17228;SDS011;8731;50.364;8.958;2023-02-15T17:50:39;53.67;;;33.27;;
17228;SDS011;8731;50.364;8.958;2023-02-15T17:55:04;60.07;;;36.27;;
17228;SDS011;8731;50.364;8.958;2023-02-15T17:59:52;54.57;;;32.00;;
17228;SDS011;8731;50.364;8.958;2023-02-15T18:04:32;53.90;;;33.10;;
17228;SDS011;8731;50.364;8.958;2023-02-15T18:09:17;47.70;;;30.57;;
17228;SDS011;8731;50.364;8.958;2023-02-15T18:13:59;56.17;;;33.30;;
17228;SDS011;8731;50.364;8.958;2023-02-15T18:18:24;52.47;;;32.40;;
17228;SDS011;8731;50.364;8.958;2023-02-15T18:22:47;53.67;;;32.93;;
17228;SDS011;8731;50.364;8.958;2023-02-15T18:27:11;52.00;;;30.33;;
17228;SDS011;8731;50.364;8.958;2023-02-15T18:31:35;53.03;;;30.87;;
17228;SDS011;8731;50.364;8.958;2023-02-15T18:35:58;62.57;;;39.27;;
17228;SDS011;8731;50.364;8.958;2023-02-15T18:40:24;62.40;;;40.10;;
17228;SDS011;8731;50.364;8.958;2023-02-15T18:44:51;57.70;;;35.23;;
17228;SDS011;8731;50.364;8.958;2023-02-15T18:49:16;46.83;;;29.97;;
17228;SDS011;8731;50.364;8.958;2023-02-15T18:53:39;53.17;;;32.47;;
17228;SDS011;8731;50.364;8.958;2023-02-15T18:58:02;54.33;;;32.23;;
17228;SDS011;8731;50.364;8.958;2023-02-15T19:02:25;53.13;;;31.97;;
17228;SDS011;8731;50.364;8.958;2023-02-15T19:06:48;59.77;;;33.43;;
17228;SDS011;8731;50.364;8.958;2023-02-15T19:11:11;71.03;;;37.33;;
17228;SDS011;8731;50.364;8.958;2023-02-15T19:15:37;79.30;;;47.43;;
17228;SDS011;8731;50.364;8.958;2023-02-15T19:20:02;75.30;;;41.93;;
17228;SDS011;8731;50.364;8.958;2023-02-15T19:24:26;61.67;;;35.57;;
17228;SDS011;8731;50.364;8.958;2023-02-15T19:28:58;69.87;;;37.97;;
17228;SDS011;8731;50.364;8.958;2023-02-15T19:33:22;81.27;;;38.33;;
17228;SDS011;8731;50.364;8.958;2023-02-15T19:37:46;73.17;;;39.53;;
17228;SDS011;8731;50.364;8.958;2023-02-15T19:42:12;80.67;;;39.97;;
17228;SDS011;8731;50.364;8.958;2023-02-15T19:46:36;82.97;;;40.60;;
17228;SDS011;8731;50.364;8.958;2023-02-15T19:50:59;82.43;;;40.40;;
17228;SDS011;8731;50.364;8.958;2023-02-15T19:55:24;78.30;;;39.23;;
17228;SDS011;8731;50.364;8.958;2023-02-15T19:59:48;77.93;;;38.03;;
17228;SDS011;8731;50.364;8.958;2023-02-15T20:04:10;72.97;;;37.40;;
17228;SDS011;8731;50.364;8.958;2023-02-15T20:08:33;78.27;;;38.43;;
17228;SDS011;8731;50.364;8.958;2023-02-15T20:12:56;76.63;;;37.97;;
17228;SDS011;8731;50.364;8.958;2023-02-15T20:17:19;77.70;;;38.13;;
17228;SDS011;8731;50.364;8.958;2023-02-15T20:21:42;70.77;;;35.30;;
17228;SDS011;8731;50.364;8.958;2023-02-15T20:26:12;70.73;;;36.33;;
17228;SDS011;8731;50.364;8.958;2023-02-15T20:30:39;69.83;;;34.43;;
17228;SDS011;8731;50.364;8.958;2023-02-15T20:35:01;60.73;;;33.73;;
17228;SDS011;8731;50.364;8.958;2023-02-15T20:39:24;72.57;;;36.17;;
17228;SDS011;8731;50.364;8.958;2023-02-15T20:43:47;78.27;;;38.17;;
17228;SDS011;8731;50.364;8.958;2023-02-15T20:48:10;71.40;;;36.67;;
17228;SDS011;8731;50.364;8.958;2023-02-15T20:52:33;76.33;;;36.33;;
17228;SDS011;8731;50.364;8.958;2023-02-15T20:56:55;67.17;;;34.83;;
17228;SDS011;8731;50.364;8.958;2023-02-15T21:01:18;67.33;;;36.60;;
17228;SDS011;8731;50.364;8.958;2023-02-15T21:05:42;64.80;;;35.27;;
17228;SDS011;8731;50.364;8.958;2023-02-15T21:10:09;57.03;;;31.17;;
17228;SDS011;8731;50.364;8.958;2023-02-15T21:14:36;55.73;;;31.80;;
17228;SDS011;8731;50.364;8.958;2023-02-15T21:18:59;62.53;;;34.10;;
17228;SDS011;8731;50.364;8.958;2023-02-15T21:23:23;59.47;;;32.83;;
17228;SDS011;8731;50.364;8.958;2023-02-15T21:27:49;65.87;;;32.53;;
17228;SDS011;8731;50.364;8.958;2023-02-15T21:32:11;60.63;;;32.27;;
17228;SDS011;8731;50.364;8.958;2023-02-15T21:36:33;68.77;;;36.20;;
17228;SDS011;8731;50.364;8.958;2023-02-15T21:40:57;62.47;;;32.83;;
17228;SDS011;8731;50.364;8.958;2023-02-15T21:45:39;61.37;;;32.13;;
17228;SDS011;8731;50.364;8.958;2023-02-15T21:50:31;63.93;;;32.73;;
17228;SDS011;8731;50.364;8.958;2023-02-15T21:55:14;56.03;;;33.57;;
17228;SDS011;8731;50.364;8.958;2023-02-15T21:59:38;55.00;;;29.73;;
17228;SDS011;8731;50.364;8.958;2023-02-15T22:04:02;59.23;;;32.00;;
17228;SDS011;8731;50.364;8.958;2023-02-15T22:08:24;62.10;;;32.07;;
17228;SDS011;8731;50.364;8.958;2023-02-15T22:12:53;55.13;;;31.63;;
17228;SDS011;8731;50.364;8.958;2023-02-15T22:17:18;55.13;;;29.93;;
17228;SDS011;8731;50.364;8.958;2023-02-15T22:21:43;55.50;;;32.03;;
17228;SDS011;8731;50.364;8.958;2023-02-15T22:26:06;49.30;;;28.70;;
17228;SDS011;8731;50.364;8.958;2023-02-15T22:30:37;53.20;;;30.80;;
17228;SDS011;8731;50.364;8.958;2023-02-15T22:35:01;44.63;;;25.47;;
17228;SDS011;8731;50.364;8.958;2023-02-15T22:39:23;42.70;;;25.93;;
17228;SDS011;8731;50.364;8.958;2023-02-15T22:43:46;57.83;;;32.10;;
17228;SDS011;8731;50.364;8.958;2023-02-15T22:48:09;53.27;;;31.43;;
17228;SDS011;8731;50.364;8.958;2023-02-15T22:52:33;53.67;;;29.43;;
17228;SDS011;8731;50.364;8.958;2023-02-15T22:56:55;48.33;;;29.47;;
17228;SDS011;8731;50.364;8.958;2023-02-15T23:01:21;49.30;;;29.40;;
17228;SDS011;8731;50.364;8.958;2023-02-15T23:05:48;49.57;;;28.90;;
17228;SDS011;8731;50.364;8.958;2023-02-15T23:10:12;46.70;;;27.77;;
17228;SDS011;8731;50.364;8.958;2023-02-15T23:14:41;43.07;;;26.63;;
17228;SDS011;8731;50.364;8.958;2023-02-15T23:19:04;50.33;;;29.43;;
17228;SDS011;8731;50.364;8.958;2023-02-15T23:23:31;50.53;;;30.07;;
17228;SDS011;8731;50.364;8.958;2023-02-15T23:27:57;53.07;;;30.87;;
17228;SDS011;8731;50.364;8.958;2023-02-15T23:32:20;51.37;;;30.47;;
17228;SDS011;8731;50.364;8.958;2023-02-15T23:36:42;54.67;;;31.60;;
17228;SDS011;8731;50.364;8.958;2023-02-15T23:41:05;58.10;;;31.33;;
17228;SDS011;8731;50.364;8.958;2023-02-15T23:45:43;58.93;;;30.00;;
17228;SDS011;8731;50.364;8.958;2023-02-15T23:50:08;54.30;;;31.43;;
17228;SDS011;8731;50.364;8.958;2023-02-15T23:54:37;56.10;;;30.57;;
17228;SDS011;8731;50.364;8.958;2023-02-15T23:58:59;55.93;;;31.67;;
